Time;durP1;ratioP1;P1;durP2;ratioP2;P2;SDS_P1;SDS_P2;PMS_P1;PMS_P2;Temp;Humidity;BMP_temperature;BMP_pressure;BME280_temperature;BME280_humidity;BME280_pressure;Samples;Min_cycle;Max_cycle;Signal;HPM_P1;HPM_P2
2021/06/15 00:01:47;;;;;;;15.88;10.10;;;;;;;16.71;56.29;100541.75;4897885;28;100471;-85
2021/06/15 00:04:13;;;;;;;24.13;10.20;;;;;;;16.69;56.99;100537.47;4928741;28;97259;-85
2021/06/15 00:06:38;;;;;;;15.07;8.60;;;;;;;16.57;57.15;100541.66;4902722;28;96620;-85
2021/06/15 00:09:04;;;;;;;18.55;9.70;;;;;;;16.66;57.12;100537.66;4896517;28;96968;-85
2021/06/15 00:11:30;;;;;;;20.45;10.32;;;;;;;16.53;57.17;100533.03;4885791;28;100487;-85
2021/06/15 00:13:55;;;;;;;19.90;11.13;;;;;;;16.55;57.33;100530.31;4895985;28;101209;-84
2021/06/15 00:16:21;;;;;;;21.63;11.00;;;;;;;16.32;57.91;100530.69;4905225;28;96672;-86
2021/06/15 00:18:46;;;;;;;18.27;10.30;;;;;;;16.34;58.41;100545.56;4909008;28;97243;-85
2021/06/15 00:21:12;;;;;;;17.27;8.68;;;;;;;16.34;57.81;100529.69;4899406;28;100768;-85
2021/06/15 00:23:38;;;;;;;14.82;8.90;;;;;;;16.32;57.98;100534.22;4900471;28;101791;-85
2021/06/15 00:26:04;;;;;;;17.17;9.30;;;;;;;16.23;58.15;100526.75;4917272;28;96709;-85
2021/06/15 00:28:29;;;;;;;14.18;8.43;;;;;;;16.36;57.61;100525.16;4916923;28;97059;-85
2021/06/15 00:30:55;;;;;;;17.40;8.77;;;;;;;16.28;58.10;100528.22;4892912;28;101445;-85
2021/06/15 00:33:20;;;;;;;13.25;7.90;;;;;;;16.25;58.49;100517.78;4911609;28;97233;-86
2021/06/15 00:35:46;;;;;;;15.25;9.13;;;;;;;16.20;58.77;100524.28;4884857;28;96737;-85
2021/06/15 00:38:12;;;;;;;15.57;8.43;;;;;;;16.19;58.10;100526.06;4903957;28;97187;-85
2021/06/15 00:40:38;;;;;;;14.63;8.20;;;;;;;16.20;58.44;100535.75;4916053;28;100013;-84
2021/06/15 00:43:03;;;;;;;13.93;8.27;;;;;;;16.17;58.60;100530.59;4887029;28;101453;-84
2021/06/15 00:45:32;;;;;;;12.98;8.10;;;;;;;16.12;59.05;100530.00;4908291;28;97137;-84
2021/06/15 00:47:59;;;;;;;14.52;8.07;;;;;;;16.05;59.19;100529.44;4896059;28;96901;-85
2021/06/15 00:50:27;;;;;;;16.70;8.48;;;;;;;15.94;59.59;100530.97;4896940;28;101999;-84
2021/06/15 00:52:53;;;;;;;19.45;9.43;;;;;;;15.93;59.24;100526.63;4899647;28;99887;-83
2021/06/15 00:55:23;;;;;;;13.07;7.88;;;;;;;15.92;59.64;100522.28;4901269;28;97190;-85
2021/06/15 00:57:50;;;;;;;13.13;9.07;;;;;;;15.80;60.02;100529.91;4906059;28;96981;-83
2021/06/15 01:00:16;;;;;;;14.07;8.07;;;;;;;15.82;59.69;100525.41;4898305;28;101294;-83
2021/06/15 01:02:42;;;;;;;14.98;8.25;;;;;;;15.71;60.01;100513.69;4913350;28;99598;-84
2021/06/15 01:05:10;;;;;;;14.18;7.72;;;;;;;15.66;60.20;100516.50;4901584;28;97107;-83
2021/06/15 01:07:47;;;;;;;13.35;8.38;;;;;;;15.69;60.10;100508.44;4918071;28;96871;-83
2021/06/15 01:10:24;;;;;;;19.70;8.77;;;;;;;15.72;60.00;100505.63;4902818;28;100224;-83
2021/06/15 01:20:07;;;;;;;18.02;8.48;;;;;;;15.52;60.74;100496.06;5090897;22;101491;-80
2021/06/15 01:26:43;;;;;;;20.60;9.68;;;;;;;15.43;60.82;100491.25;5002346;28;96784;-79
2021/06/15 01:33:33;;;;;;;17.67;9.23;;;;;;;15.28;61.43;100494.69;5018998;28;96468;-79
2021/06/15 01:36:39;;;;;;;15.93;9.55;;;;;;;15.24;61.04;100488.69;4973638;28;99658;-79
2021/06/15 01:39:14;;;;;;;17.60;9.30;;;;;;;15.34;60.74;100495.22;5007551;28;99794;-79
2021/06/15 01:42:20;;;;;;;15.30;8.52;;;;;;;15.34;60.53;100497.84;4992576;28;96443;-78
2021/06/15 01:51:25;;;;;;;10.82;7.85;;;;;;;15.26;61.39;100480.66;5044678;22;98444;-81
2021/06/15 01:53:57;;;;;;;16.88;8.98;;;;;;;15.21;60.82;100478.25;4933427;28;96822;-81
2021/06/15 01:56:31;;;;;;;15.35;8.88;;;;;;;15.25;60.88;100484.25;4934802;28;96855;-80
2021/06/15 01:59:02;;;;;;;12.20;7.75;;;;;;;15.23;61.22;100471.09;4933050;28;101790;-80
2021/06/15 02:01:30;;;;;;;13.90;8.45;;;;;;;15.10;61.29;100470.88;4930080;28;99118;-80
2021/06/15 02:04:02;;;;;;;16.55;8.30;;;;;;;15.10;61.59;100478.81;4944863;28;96507;-80
2021/06/15 02:06:29;;;;;;;15.02;7.93;;;;;;;15.10;61.18;100485.91;4948040;28;96657;-80
2021/06/15 02:08:55;;;;;;;15.35;8.68;;;;;;;15.05;62.05;100486.09;4944052;28;99630;-79
2021/06/15 02:11:42;;;;;;;16.58;8.40;;;;;;;15.00;61.62;100472.25;4905994;28;97028;-80
2021/06/15 02:15:10;;;;;;;15.50;10.10;;;;;;;14.98;61.85;100460.03;4946252;28;96785;-80
2021/06/15 02:21:01;;;;;;;15.95;9.23;;;;;;;14.83;62.09;100454.59;5543141;22;97535;-79
2021/06/15 02:27:06;;;;;;;15.20;7.88;;;;;;;14.96;61.57;100456.66;4983257;28;96517;-78
2021/06/15 02:33:27;;;;;;;16.33;8.75;;;;;;;14.81;62.21;100456.47;5169672;22;99120;-81
2021/06/15 02:36:06;;;;;;;15.75;9.98;;;;;;;14.82;62.16;100462.59;4978746;28;99371;-80
2021/06/15 02:43:15;;;;;;;15.85;8.75;;;;;;;14.72;61.96;100464.84;4976865;28;96474;-80
2021/06/15 02:45:50;;;;;;;13.05;8.80;;;;;;;14.71;61.95;100461.34;4945510;28;98907;-80
2021/06/15 02:51:48;;;;;;;12.40;7.57;;;;;;;14.86;61.86;100480.00;5839752;22;100382;-78
2021/06/15 02:54:22;;;;;;;15.63;9.48;;;;;;;14.90;61.55;100486.88;4973206;28;96558;-78
2021/06/15 02:56:51;;;;;;;16.05;8.05;;;;;;;14.83;61.89;100480.16;4953662;28;99968;-78
2021/06/15 02:59:37;;;;;;;15.40;8.90;;;;;;;14.71;62.14;100482.47;4946391;28;96867;-79
2021/06/15 03:05:36;;;;;;;16.98;9.20;;;;;;;14.76;62.17;100497.25;4958083;28;96443;-80
2021/06/15 03:12:36;;;;;;;16.60;8.80;;;;;;;14.74;62.09;100497.31;4957440;28;96934;-78
2021/06/15 03:19:09;;;;;;;16.23;10.10;;;;;;;14.87;62.51;100510.81;4954970;28;96655;-78
2021/06/15 03:25:57;;;;;;;21.98;10.38;;;;;;;15.12;61.96;100513.94;4950046;28;96533;-79
2021/06/15 03:32:21;;;;;;;14.02;8.43;;;;;;;15.61;60.93;100508.81;4964200;28;96612;-80
2021/06/15 03:39:21;;;;;;;15.80;9.32;;;;;;;15.82;59.81;100506.88;4984221;28;96961;-80
2021/06/15 03:41:54;;;;;;;14.35;9.73;;;;;;;16.06;59.25;100506.50;4964153;28;96621;-82
2021/06/15 03:44:20;;;;;;;15.45;9.15;;;;;;;16.13;59.15;100507.03;4951245;28;97850;-83
2021/06/15 03:46:48;;;;;;;13.00;9.32;;;;;;;16.17;58.83;100508.56;4943498;28;101780;-84
2021/06/15 03:49:15;;;;;;;13.82;8.82;;;;;;;16.36;58.57;100505.78;4941114;28;100156;-84
2021/06/15 03:51:49;;;;;;;16.17;9.75;;;;;;;16.37;58.37;100504.81;4924213;28;96810;-85
2021/06/15 03:54:15;;;;;;;19.25;10.38;;;;;;;16.34;58.15;100510.28;4950642;28;97131;-85
2021/06/15 03:56:45;;;;;;;16.35;8.88;;;;;;;16.47;57.78;100503.38;4947662;28;102261;-86
2021/06/15 03:59:13;;;;;;;16.10;9.27;;;;;;;16.53;57.98;100493.28;4979275;28;98071;-85
2021/06/15 04:01:40;;;;;;;14.90;9.32;;;;;;;16.57;56.99;100491.31;4943181;28;97017;-85
2021/06/15 04:04:10;;;;;;;13.60;8.80;;;;;;;16.52;57.12;100494.25;4954299;28;96907;-85
2021/06/15 04:06:38;;;;;;;16.15;9.35;;;;;;;16.52;57.78;100491.59;4943049;28;101352;-86
2021/06/15 04:09:05;;;;;;;11.95;8.85;;;;;;;16.64;57.08;100484.75;4960831;28;98412;-86
2021/06/15 04:11:33;;;;;;;12.73;8.65;;;;;;;16.55;57.45;100495.88;4945616;28;96932;-85
2021/06/15 04:14:00;;;;;;;13.20;8.50;;;;;;;16.63;57.16;100501.56;4944941;28;97081;-85
2021/06/15 04:16:26;;;;;;;14.38;9.68;;;;;;;16.83;56.45;100497.81;4962017;28;101986;-86
2021/06/15 04:19:02;;;;;;;13.02;7.60;;;;;;;16.84;56.56;100491.59;4960468;28;101407;-86
2021/06/15 04:21:32;;;;;;;15.30;9.07;;;;;;;16.87;57.05;100491.41;4957913;28;96812;-86
2021/06/15 04:24:02;;;;;;;17.15;8.52;;;;;;;16.95;56.59;100491.81;4929113;28;96875;-85
2021/06/15 04:26:27;;;;;;;14.50;8.60;;;;;;;17.01;56.38;100503.00;4969431;28;98212;-86
2021/06/15 04:28:53;;;;;;;18.58;9.68;;;;;;;17.08;56.42;100505.22;4945379;28;101118;-85
2021/06/15 04:31:22;;;;;;;12.13;8.23;;;;;;;17.27;55.69;100499.69;4959041;28;96922;-85
2021/06/15 04:33:51;;;;;;;14.65;8.38;;;;;;;17.47;55.42;100505.63;4940624;28;97160;-86
2021/06/15 04:36:18;;;;;;;14.20;9.52;;;;;;;17.72;54.94;100486.41;4942556;28;100706;-85
2021/06/15 04:38:46;;;;;;;16.48;8.70;;;;;;;17.93;54.01;100495.75;4940653;28;101453;-85
2021/06/15 04:41:16;;;;;;;16.25;10.07;;;;;;;17.97;53.82;100497.25;4962397;28;96641;-86
2021/06/15 04:43:49;;;;;;;12.55;8.30;;;;;;;18.02;54.50;100499.63;4945001;28;97062;-85
2021/06/15 04:46:29;;;;;;;14.20;9.18;;;;;;;17.96;54.47;100500.84;4944833;28;97994;-86
2021/06/15 04:49:02;;;;;;;17.08;9.30;;;;;;;18.44;53.12;100500.50;4978047;28;101419;-85
2021/06/15 04:51:30;;;;;;;14.85;8.52;;;;;;;18.59;52.83;100496.00;4960829;28;96720;-86
2021/06/15 04:53:58;;;;;;;15.35;9.70;;;;;;;18.55;53.07;100498.03;4961396;28;96869;-85
2021/06/15 04:56:27;;;;;;;21.20;10.32;;;;;;;18.80;52.35;100507.97;4961219;28;101719;-87
2021/06/15 04:58:53;;;;;;;15.52;9.52;;;;;;;18.90;52.18;100503.72;4942037;28;100709;-84
2021/06/15 05:01:19;;;;;;;17.52;9.90;;;;;;;19.00;52.03;100498.69;4962249;28;96941;-85
2021/06/15 05:03:45;;;;;;;15.80;8.68;;;;;;;19.13;51.73;100496.88;4957970;28;97475;-86
2021/06/15 05:06:11;;;;;;;15.27;8.60;;;;;;;19.43;51.41;100503.75;4961280;28;101156;-84
2021/06/15 05:08:50;;;;;;;13.68;9.10;;;;;;;19.56;50.77;100506.44;4940292;28;101326;-86
2021/06/15 05:11:16;;;;;;;13.35;8.45;;;;;;;19.84;49.93;100506.28;4957423;28;96859;-85
2021/06/15 05:13:43;;;;;;;12.88;7.95;;;;;;;19.92;49.95;100510.22;4941187;28;97023;-86
2021/06/15 05:16:09;;;;;;;11.98;8.73;;;;;;;20.07;49.75;100506.44;4959643;28;101781;-85
2021/06/15 05:18:37;;;;;;;12.00;8.02;;;;;;;20.32;48.95;100513.56;4940516;28;101154;-85
2021/06/15 05:21:07;;;;;;;12.35;9.10;;;;;;;20.33;49.10;100502.81;4940458;28;97142;-85
2021/06/15 05:23:38;;;;;;;13.40;8.43;;;;;;;20.53;48.85;100509.38;4969614;28;96819;-86
2021/06/15 05:26:04;;;;;;;14.35;7.97;;;;;;;20.71;48.44;100504.53;4947515;28;101846;-85
2021/06/15 05:28:29;;;;;;;10.57;7.28;;;;;;;20.79;48.59;100502.13;4977440;28;98431;-86
2021/06/15 05:30:55;;;;;;;13.52;8.00;;;;;;;21.11;47.62;100498.88;4960828;28;97213;-86
2021/06/15 05:33:20;;;;;;;17.48;8.90;;;;;;;21.24;47.96;100502.34;4950958;28;96851;-84
2021/06/15 05:35:46;;;;;;;15.43;8.63;;;;;;;21.44;47.12;100492.84;4963357;28;97585;-84
2021/06/15 05:38:12;;;;;;;12.02;7.45;;;;;;;21.66;46.81;100500.03;4960432;28;101567;-85
2021/06/15 05:40:38;;;;;;;13.63;7.80;;;;;;;21.85;46.63;100502.13;4940709;28;97206;-85
2021/06/15 05:43:03;;;;;;;13.70;7.22;;;;;;;22.19;46.24;100495.97;4960516;28;96928;-85
2021/06/15 05:45:29;;;;;;;12.23;7.15;;;;;;;22.45;45.93;100499.22;4956873;28;97952;-87
2021/06/15 05:47:55;;;;;;;14.70;6.95;;;;;;;23.01;44.52;100499.94;4951123;28;101884;-85
2021/06/15 05:50:20;;;;;;;11.45;6.88;;;;;;;23.30;43.69;100504.69;4957204;28;97088;-85
2021/06/15 05:52:46;;;;;;;14.60;7.13;;;;;;;23.56;43.13;100506.94;4940052;28;97541;-84
2021/06/15 05:55:13;;;;;;;15.10;7.03;;;;;;;24.55;41.93;100502.78;4959710;28;101744;-85
2021/06/15 05:57:39;;;;;;;12.98;5.50;;;;;;;25.53;40.78;100504.53;4973543;28;98061;-85
2021/06/15 06:00:09;;;;;;;11.80;7.95;;;;;;;26.17;38.90;100494.88;4932010;28;97133;-85
2021/06/15 06:02:39;;;;;;;11.77;8.38;;;;;;;27.45;37.58;100497.38;4959886;28;97270;-85
2021/06/15 06:10:21;;;;;;;11.60;6.05;;;;;;;28.79;34.38;100492.31;4961559;28;97054;-84
2021/06/15 06:12:46;;;;;;;12.18;7.15;;;;;;;29.61;33.86;100495.03;4938228;28;97419;-82
2021/06/15 06:15:13;;;;;;;13.48;7.43;;;;;;;30.93;32.16;100490.00;4937248;28;101340;-85
2021/06/15 06:17:40;;;;;;;14.80;7.18;;;;;;;31.30;31.16;100500.00;4955967;28;101683;-84
2021/06/15 06:20:07;;;;;;;13.10;7.38;;;;;;;31.46;31.27;100490.91;4949223;28;97193;-84
2021/06/15 06:22:35;;;;;;;14.10;7.30;;;;;;;32.05;30.47;100495.56;4936247;28;96816;-85
2021/06/15 06:25:06;;;;;;;11.05;7.57;;;;;;;31.94;29.83;100488.72;4948714;28;101556;-85
2021/06/15 06:27:31;;;;;;;11.93;7.65;;;;;;;31.98;30.38;100500.91;4939212;28;102110;-85
2021/06/15 06:29:57;;;;;;;15.25;7.97;;;;;;;32.88;29.50;100497.00;4945607;28;97417;-84
2021/06/15 06:32:22;;;;;;;17.05;8.45;;;;;;;32.90;29.41;100503.06;4925746;28;97131;-84
2021/06/15 06:34:48;;;;;;;11.60;7.47;;;;;;;32.66;29.51;100496.13;4932615;28;101624;-84
2021/06/15 06:37:13;;;;;;;10.77;6.78;;;;;;;32.61;29.87;100498.59;4933138;28;101640;-84
2021/06/15 06:39:41;;;;;;;12.27;7.50;;;;;;;33.07;29.16;100499.09;4956272;28;97135;-85
2021/06/15 06:42:07;;;;;;;14.23;6.93;;;;;;;33.02;29.29;100489.88;4975979;28;97211;-84
2021/06/15 06:44:33;;;;;;;13.50;6.63;;;;;;;32.46;29.95;100493.19;4953306;28;101986;-84
2021/06/15 06:46:58;;;;;;;13.02;6.88;;;;;;;32.64;29.62;100499.06;4959335;28;101266;-84
2021/06/15 06:49:24;;;;;;;12.57;7.15;;;;;;;33.17;28.54;100503.38;4951703;28;97315;-84
2021/06/15 06:51:50;;;;;;;12.95;6.57;;;;;;;32.92;29.15;100510.00;4952550;28;97427;-83
2021/06/15 06:54:15;;;;;;;12.63;6.85;;;;;;;33.14;28.33;100507.34;4947890;28;101458;-84
2021/06/15 06:56:41;;;;;;;11.88;6.60;;;;;;;33.25;28.93;100506.81;4956508;28;101959;-84
2021/06/15 06:59:09;;;;;;;11.30;6.60;;;;;;;33.96;28.52;100493.09;4948975;28;97220;-84
2021/06/15 07:01:35;;;;;;;7.57;5.50;;;;;;;34.22;28.32;100497.88;4969512;28;97167;-84
2021/06/15 07:04:00;;;;;;;11.48;5.22;;;;;;;34.34;28.14;100489.09;4939321;28;101754;-85
2021/06/15 07:06:26;;;;;;;9.75;6.25;;;;;;;34.51;26.71;100492.31;4945326;28;101360;-84
2021/06/15 07:08:53;;;;;;;10.60;5.75;;;;;;;34.59;27.26;100487.56;4937777;28;96887;-86
2021/06/15 07:11:19;;;;;;;13.75;6.93;;;;;;;33.70;28.33;100499.22;4944922;28;97110;-85
2021/06/15 07:13:44;;;;;;;10.18;6.07;;;;;;;33.47;28.96;100495.88;4938090;28;102007;-85
2021/06/15 07:16:10;;;;;;;11.52;5.53;;;;;;;33.11;29.35;100489.53;4954738;28;100108;-86
2021/06/15 07:18:38;;;;;;;10.20;6.10;;;;;;;33.25;28.87;100492.34;4954618;28;97307;-85
2021/06/15 07:21:05;;;;;;;10.57;6.30;;;;;;;33.90;28.01;100493.91;4946391;28;97015;-85
2021/06/15 07:23:32;;;;;;;13.05;6.18;;;;;;;33.29;28.54;100496.38;4954308;28;98724;-86
2021/06/15 07:25:58;;;;;;;13.35;6.15;;;;;;;33.45;28.60;100495.22;4969955;28;102088;-86
2021/06/15 07:28:24;;;;;;;10.20;6.47;;;;;;;33.15;29.03;100492.69;4962387;28;97255;-85
2021/06/15 07:30:49;;;;;;;9.85;5.68;;;;;;;33.67;28.90;100499.63;4930621;28;97394;-85
2021/06/15 07:33:15;;;;;;;11.00;6.45;;;;;;;33.77;28.96;100499.25;4953981;28;101278;-87
2021/06/15 07:35:41;;;;;;;8.45;5.60;;;;;;;34.39;28.08;100494.78;4944543;28;98505;-86
2021/06/15 07:38:06;;;;;;;14.23;6.70;;;;;;;34.19;27.44;100491.97;4944947;28;97063;-86
2021/06/15 07:40:32;;;;;;;10.27;6.28;;;;;;;34.23;28.08;100494.09;4973578;28;97295;-88
2021/06/15 07:42:59;;;;;;;9.55;7.05;;;;;;;35.21;27.39;100485.56;4949173;28;101566;-87
2021/06/15 07:45:29;;;;;;;9.68;5.43;;;;;;;35.46;26.19;100482.19;4940744;28;101365;-87
2021/06/15 07:47:57;;;;;;;10.85;5.82;;;;;;;35.79;27.04;100490.38;4972330;28;97313;-86
2021/06/15 07:50:22;;;;;;;12.48;6.43;;;;;;;35.83;26.64;100484.25;4921707;28;97285;-86
2021/06/15 07:52:48;;;;;;;6.32;4.47;;;;;;;35.91;26.89;100493.28;4934314;28;101883;-85
2021/06/15 07:55:16;;;;;;;11.40;6.07;;;;;;;35.76;27.07;100491.63;4938394;28;101167;-87
2021/06/15 07:57:42;;;;;;;13.32;5.47;;;;;;;36.10;26.59;100488.81;4950739;28;97590;-84
2021/06/15 08:00:10;;;;;;;11.10;6.13;;;;;;;36.07;25.75;100479.16;4916108;28;97398;-82
2021/06/15 08:02:39;;;;;;;7.93;5.93;;;;;;;35.08;26.78;100493.72;4935297;28;99205;-81
2021/06/15 08:05:05;;;;;;;12.82;6.10;;;;;;;34.45;27.10;100483.91;4906752;28;100821;-81
2021/06/15 08:07:30;;;;;;;9.93;5.65;;;;;;;33.99;28.44;100492.69;4951333;28;97009;-84
2021/06/15 08:09:56;;;;;;;13.63;5.80;;;;;;;34.29;28.20;100488.88;4937893;28;96652;-81
2021/06/15 08:12:22;;;;;;;12.93;5.60;;;;;;;34.56;27.43;100487.97;4921080;28;101217;-81
2021/06/15 08:14:48;;;;;;;8.45;5.18;;;;;;;34.32;28.34;100493.91;4920947;28;101927;-81
2021/06/15 08:17:14;;;;;;;5.70;4.35;;;;;;;35.22;27.81;100484.50;4921809;28;96920;-80
2021/06/15 08:19:40;;;;;;;9.57;5.70;;;;;;;35.62;26.87;100483.69;4935657;28;97229;-81
2021/06/15 08:22:06;;;;;;;9.38;5.35;;;;;;;36.09;27.12;100489.88;4909999;28;101921;-81
2021/06/15 08:24:32;;;;;;;8.77;5.22;;;;;;;36.37;25.95;100489.56;4933637;28;101895;-84
2021/06/15 08:26:57;;;;;;;12.27;6.28;;;;;;;36.01;26.29;100486.31;4913467;28;96796;-81
2021/06/15 08:29:23;;;;;;;10.10;6.13;;;;;;;36.06;26.22;100487.59;4954626;28;96956;-83
2021/06/15 08:31:49;;;;;;;12.90;6.25;;;;;;;35.67;26.90;100492.91;4918124;28;101072;-83
2021/06/15 08:34:15;;;;;;;12.88;5.80;;;;;;;35.60;26.06;100489.34;4930922;28;101759;-84
2021/06/15 08:36:40;;;;;;;8.93;5.82;;;;;;;35.06;27.17;100480.31;4919701;28;97084;-84
2021/06/15 08:39:08;;;;;;;10.07;5.28;;;;;;;34.93;27.45;100486.56;4916859;28;96966;-84
2021/06/15 08:41:34;;;;;;;13.90;5.57;;;;;;;35.28;26.83;100478.22;4918566;28;101200;-86
2021/06/15 08:44:02;;;;;;;8.85;5.55;;;;;;;35.28;26.31;100480.94;4931851;28;102253;-84
2021/06/15 08:46:27;;;;;;;11.13;5.35;;;;;;;35.01;27.13;100471.06;4938084;28;97017;-84
2021/06/15 08:48:53;;;;;;;13.50;5.40;;;;;;;34.71;27.33;100474.16;4939966;28;97452;-83
2021/06/15 08:51:19;;;;;;;8.02;4.30;;;;;;;34.79;27.53;100481.28;4917761;28;101021;-81
2021/06/15 08:53:45;;;;;;;10.75;4.97;;;;;;;34.94;27.73;100473.78;4968488;28;98527;-83
2021/06/15 08:56:21;;;;;;;10.95;4.63;;;;;;;35.32;27.87;100470.47;4947175;28;96706;-83
2021/06/15 08:59:13;;;;;;;9.55;5.20;;;;;;;35.18;27.61;100466.91;4934089;28;97163;-83
2021/06/15 09:01:39;;;;;;;9.40;5.75;;;;;;;35.19;27.40;100467.72;4956874;28;98602;-83
2021/06/15 09:04:04;;;;;;;14.98;6.13;;;;;;;35.19;27.04;100465.84;4956068;28;101501;-83
2021/06/15 09:06:31;;;;;;;7.65;4.72;;;;;;;34.52;28.12;100472.19;4977226;28;97228;-82
2021/06/15 09:08:59;;;;;;;10.20;5.60;;;;;;;34.77;27.31;100470.59;4942402;28;96924;-83
2021/06/15 09:11:26;;;;;;;7.60;5.15;;;;;;;34.57;27.79;100465.09;4940577;28;101948;-84
2021/06/15 09:13:52;;;;;;;10.43;5.28;;;;;;;34.27;27.55;100472.75;4939707;28;101195;-85
2021/06/15 09:16:33;;;;;;;8.70;4.85;;;;;;;34.30;27.43;100457.84;4969920;28;96692;-84
2021/06/15 09:18:59;;;;;;;7.63;5.15;;;;;;;34.02;27.91;100464.22;4944295;28;96865;-83
2021/06/15 09:21:25;;;;;;;7.20;4.68;;;;;;;34.25;27.98;100466.66;4945682;28;101215;-84
2021/06/15 09:24:24;;;;;;;11.27;4.75;;;;;;;34.22;27.41;100467.91;4955379;28;101111;-84
2021/06/15 09:27:08;;;;;;;10.88;5.65;;;;;;;34.07;27.89;100456.31;4971666;28;97035;-83
2021/06/15 09:29:46;;;;;;;13.50;5.38;;;;;;;34.10;27.93;100457.81;4944576;28;97068;-85
2021/06/15 09:32:30;;;;;;;9.80;5.57;;;;;;;33.94;28.37;100448.06;4925600;28;101569;-82
2021/06/15 09:35:04;;;;;;;8.10;5.43;;;;;;;34.00;28.72;100458.97;4971887;28;98149;-82
2021/06/15 09:37:31;;;;;;;13.70;7.38;;;;;;;33.74;28.44;100458.81;4961031;28;96985;-82
2021/06/15 09:39:58;;;;;;;8.18;5.03;;;;;;;33.86;28.90;100457.25;4957127;28;98056;-84
2021/06/15 09:42:23;;;;;;;13.70;6.22;;;;;;;33.71;28.88;100454.63;4928820;28;101394;-80
2021/06/15 09:44:49;;;;;;;13.48;5.82;;;;;;;33.14;29.70;100461.09;4942139;28;97816;-86
2021/06/15 09:47:14;;;;;;;16.60;6.40;;;;;;;32.94;29.81;100458.19;4945396;28;97225;-87
2021/06/15 09:49:44;;;;;;;16.63;5.88;;;;;;;32.92;29.28;100454.81;4939378;28;97647;-86
2021/06/15 09:52:28;;;;;;;8.18;4.78;;;;;;;32.78;30.08;100453.81;4932117;28;101368;-87
2021/06/15 09:55:02;;;;;;;10.75;5.10;;;;;;;32.44;29.70;100455.34;4958246;28;98369;-86
2021/06/15 09:57:34;;;;;;;10.00;4.38;;;;;;;32.19;31.25;100454.00;4959202;28;97345;-87
2021/06/15 10:00:21;;;;;;;14.70;6.07;;;;;;;32.21;30.23;100449.22;4959425;28;96906;-85
2021/06/15 10:03:00;;;;;;;11.98;10.75;;;;;;;31.74;31.14;100451.28;4958657;28;98561;-87
2021/06/15 10:05:29;;;;;;;11.52;5.15;;;;;;;31.89;31.40;100445.84;4959403;28;100123;-87
2021/06/15 10:07:58;;;;;;;13.10;6.15;;;;;;;31.65;31.44;100444.28;4958590;28;96861;-87
2021/06/15 10:10:25;;;;;;;8.30;5.10;;;;;;;31.53;31.91;100452.03;4959604;28;96913;-86
2021/06/15 10:12:52;;;;;;;14.35;6.40;;;;;;;30.97;31.50;100454.19;4957383;28;101899;-81
2021/06/15 10:15:18;;;;;;;13.35;5.30;;;;;;;30.75;32.58;100449.59;4942191;28;101102;-82
2021/06/15 10:17:45;;;;;;;15.45;5.97;;;;;;;30.88;32.39;100453.41;4942109;28;96847;-86
2021/06/15 10:20:14;;;;;;;13.52;5.53;;;;;;;30.61;32.83;100451.22;4959275;28;96796;-86
2021/06/15 10:22:42;;;;;;;10.07;5.45;;;;;;;30.66;31.71;100446.09;4957229;28;101807;-85
2021/06/15 10:25:09;;;;;;;16.20;6.32;;;;;;;30.24;32.90;100441.97;4945223;28;101357;-85
2021/06/15 10:27:34;;;;;;;13.95;6.78;;;;;;;29.53;33.40;100447.25;4958475;28;96808;-80
2021/06/15 10:30:00;;;;;;;12.80;5.82;;;;;;;29.37;34.50;100446.44;4921902;28;97326;-81
2021/06/15 10:32:26;;;;;;;9.80;5.25;;;;;;;29.44;35.28;100440.16;4940806;28;100952;-84
2021/06/15 10:35:04;;;;;;;13.55;6.30;;;;;;;29.70;33.63;100441.81;4953813;28;101227;-84
2021/06/15 10:37:32;;;;;;;16.10;6.45;;;;;;;29.52;33.88;100431.19;4980731;28;97283;-84
2021/06/15 10:40:26;;;;;;;15.98;5.10;;;;;;;29.40;35.25;100437.97;4948745;28;97439;-83
2021/06/15 10:43:04;;;;;;;11.60;5.00;;;;;;;29.51;34.87;100430.34;4961879;28;98009;-86
2021/06/15 10:45:30;;;;;;;14.38;6.55;;;;;;;29.75;34.43;100420.50;4971142;28;98569;-85
2021/06/15 10:48:07;;;;;;;15.70;9.23;;;;;;;29.77;35.00;100419.31;4954781;28;97590;-87
2021/06/15 10:50:45;;;;;;;13.30;7.10;;;;;;;29.62;34.18;100414.78;4954741;28;97308;-86
2021/06/15 10:53:12;;;;;;;14.70;6.53;;;;;;;29.59;35.11;100407.84;4937767;28;101404;-85
2021/06/15 10:55:53;;;;;;;11.35;6.22;;;;;;;29.46;34.74;100411.09;4954628;28;101718;-82
2021/06/15 10:58:43;;;;;;;14.13;5.60;;;;;;;29.25;34.57;100416.19;4955306;28;97150;-85
2021/06/15 11:01:13;;;;;;;8.68;6.10;;;;;;;29.59;35.04;100418.66;4972471;28;96900;-84
2021/06/15 11:03:58;;;;;;;13.23;7.20;;;;;;;29.11;35.19;100417.72;4953949;28;100218;-78
2021/06/15 11:06:27;;;;;;;13.25;6.32;;;;;;;28.77;34.98;100420.56;4954245;28;100982;-85
2021/06/15 11:09:13;;;;;;;13.07;6.28;;;;;;;28.89;35.17;100400.34;4971760;28;97179;-83
2021/06/15 11:11:39;;;;;;;10.40;5.90;;;;;;;28.98;34.79;100406.59;4954950;28;97111;-82
2021/06/15 11:14:19;;;;;;;9.07;5.45;;;;;;;29.12;34.44;100400.53;4939005;28;101308;-81
2021/06/15 11:16:46;;;;;;;13.63;5.60;;;;;;;28.65;34.84;100395.75;4952060;28;98121;-82
2021/06/15 11:19:17;;;;;;;11.00;5.97;;;;;;;28.40;35.03;100394.84;4955048;28;97595;-81
2021/06/15 11:21:49;;;;;;;9.13;5.55;;;;;;;28.43;35.63;100397.25;4970682;28;96875;-83
2021/06/15 11:24:22;;;;;;;14.55;5.57;;;;;;;28.11;35.67;100398.84;4952004;28;98971;-85
2021/06/15 11:26:49;;;;;;;10.63;5.10;;;;;;;28.42;35.45;100391.03;4925943;28;101080;-85
2021/06/15 11:29:44;;;;;;;12.93;5.78;;;;;;;28.44;35.48;100398.94;4955522;28;97408;-83
2021/06/15 11:32:36;;;;;;;13.77;5.13;;;;;;;28.24;36.34;100390.25;4933536;28;97649;-83
2021/06/15 11:35:02;;;;;;;9.98;5.55;;;;;;;28.24;36.01;100397.50;4937065;28;101602;-83
2021/06/15 11:37:33;;;;;;;18.80;7.10;;;;;;;28.24;36.61;100386.72;4954814;28;101384;-83
2021/06/15 11:40:17;;;;;;;11.45;4.65;;;;;;;28.36;36.44;100385.38;4953936;28;96769;-83
2021/06/15 11:42:48;;;;;;;8.80;4.43;;;;;;;28.47;36.96;100390.50;4942704;28;97320;-84
2021/06/15 11:45:20;;;;;;;9.30;5.13;;;;;;;28.63;36.08;100376.19;4954341;28;98428;-84
2021/06/15 11:47:48;;;;;;;12.02;4.38;;;;;;;28.59;36.68;100382.91;4977722;28;98662;-84
2021/06/15 11:50:26;;;;;;;9.23;4.50;;;;;;;28.44;35.90;100388.13;4948367;28;98086;-81
2021/06/15 11:52:59;;;;;;;11.68;4.68;;;;;;;28.34;36.48;100371.25;4955642;28;97164;-84
2021/06/15 11:55:46;;;;;;;7.43;4.20;;;;;;;28.11;37.17;100371.84;4936953;28;101250;-82
2021/06/15 11:58:33;;;;;;;23.90;5.13;;;;;;;28.04;37.12;100376.19;4957723;28;101441;-83
2021/06/15 12:01:11;;;;;;;7.15;4.65;;;;;;;28.06;37.56;100368.78;4968587;28;96832;-84
2021/06/15 12:03:41;;;;;;;8.85;4.53;;;;;;;28.15;37.32;100366.97;4934790;28;97259;-83
2021/06/15 12:06:08;;;;;;;6.90;4.03;;;;;;;28.04;36.67;100360.00;4934399;28;101337;-84
2021/06/15 12:08:36;;;;;;;8.27;4.47;;;;;;;27.97;36.67;100372.47;4946323;28;101112;-84
2021/06/15 12:11:04;;;;;;;20.80;4.63;;;;;;;28.00;36.51;100364.06;4942554;28;97159;-84
2021/06/15 12:13:30;;;;;;;11.82;5.78;;;;;;;27.84;36.92;100358.59;4938817;28;97188;-84
2021/06/15 12:16:13;;;;;;;10.38;4.10;;;;;;;27.91;37.96;100347.00;4957491;28;101105;-83
2021/06/15 12:18:43;;;;;;;9.07;4.38;;;;;;;28.03;36.53;100335.91;4952639;28;101668;-82
2021/06/15 12:21:11;;;;;;;10.20;4.75;;;;;;;28.00;36.82;100339.78;4957239;28;96795;-84
2021/06/15 12:23:40;;;;;;;6.90;4.35;;;;;;;28.07;36.85;100340.84;4940474;28;96923;-84
2021/06/15 12:26:51;;;;;;;8.10;3.97;;;;;;;28.13;36.48;100337.47;4940009;28;99138;-84
2021/06/15 12:29:18;;;;;;;8.23;4.07;;;;;;;28.27;36.48;100335.13;4933819;28;101233;-83
2021/06/15 12:31:46;;;;;;;6.70;4.15;;;;;;;28.31;36.74;100341.88;4973629;28;97966;-79
2021/06/15 12:34:15;;;;;;;10.52;4.25;;;;;;;28.40;36.25;100335.47;4958883;28;97586;-83
2021/06/15 12:36:42;;;;;;;7.07;4.43;;;;;;;28.42;36.16;100337.03;4937687;28;101725;-81
2021/06/15 12:39:15;;;;;;;10.93;4.32;;;;;;;28.29;35.92;100335.81;4968472;28;98505;-84